sensor_id;sensor_type;location;lat;lon;timestamp;temperature;humidity
8537;DHT22;4306;50.210;10.628;2023-05-07T00:00:59;13.80;99.90
8537;DHT22;4306;50.210;10.628;2023-05-07T00:03:26;13.90;99.90
8537;DHT22;4306;50.210;10.628;2023-05-07T00:05:53;13.90;99.90
8537;DHT22;4306;50.210;10.628;2023-05-07T00:08:22;13.90;99.90
8537;DHT22;4306;50.210;10.628;2023-05-07T00:10:49;13.90;99.90
8537;DHT22;4306;50.210;10.628;2023-05-07T00:13:16;13.80;99.90
8537;DHT22;4306;50.210;10.628;2023-05-07T00:15:42;13.80;99.90
8537;DHT22;4306;50.210;10.628;2023-05-07T00:18:09;13.70;99.90
8537;DHT22;4306;50.210;10.628;2023-05-07T00:20:36;13.90;99.90
8537;DHT22;4306;50.210;10.628;2023-05-07T00:23:03;13.80;99.90
8537;DHT22;4306;50.210;10.628;2023-05-07T00:25:31;13.80;99.90
8537;DHT22;4306;50.210;10.628;2023-05-07T00:27:58;13.80;99.90
8537;DHT22;4306;50.210;10.628;2023-05-07T00:30:29;13.80;99.90
8537;DHT22;4306;50.210;10.628;2023-05-07T00:32:56;13.80;99.90
8537;DHT22;4306;50.210;10.628;2023-05-07T00:35:23;13.80;99.90
8537;DHT22;4306;50.210;10.628;2023-05-07T00:37:49;13.80;99.90
8537;DHT22;4306;50.210;10.628;2023-05-07T00:40:16;13.60;99.90
8537;DHT22;4306;50.210;10.628;2023-05-07T00:42:45;13.50;99.90
8537;DHT22;4306;50.210;10.628;2023-05-07T00:45:12;13.50;99.90
8537;DHT22;4306;50.210;10.628;2023-05-07T00:47:39;13.40;99.90
8537;DHT22;4306;50.210;10.628;2023-05-07T00:50:08;13.30;99.90
8537;DHT22;4306;50.210;10.628;2023-05-07T00:52:37;13.30;99.90
8537;DHT22;4306;50.210;10.628;2023-05-07T00:55:06;13.40;99.90
8537;DHT22;4306;50.210;10.628;2023-05-07T00:57:35;13.40;99.90
8537;DHT22;4306;50.210;10.628;2023-05-07T01:00:06;13.50;99.90
8537;DHT22;4306;50.210;10.628;2023-05-07T01:02:34;13.50;99.90
8537;DHT22;4306;50.210;10.628;2023-05-07T01:05:02;13.50;99.90
8537;DHT22;4306;50.210;10.628;2023-05-07T01:07:30;13.50;99.90
8537;DHT22;4306;50.210;10.628;2023-05-07T01:09:58;13.40;99.90
8537;DHT22;4306;50.210;10.628;2023-05-07T01:12:25;13.40;99.90
8537;DHT22;4306;50.210;10.628;2023-05-07T01:14:53;13.40;99.90
8537;DHT22;4306;50.210;10.628;2023-05-07T01:17:21;13.40;99.90
8537;DHT22;4306;50.210;10.628;2023-05-07T01:19:48;13.40;99.90
8537;DHT22;4306;50.210;10.628;2023-05-07T01:22:16;13.40;99.90
8537;DHT22;4306;50.210;10.628;2023-05-07T01:24:49;13.40;99.90
8537;DHT22;4306;50.210;10.628;2023-05-07T01:27:16;13.40;99.90
8537;DHT22;4306;50.210;10.628;2023-05-07T01:29:42;13.30;99.90
8537;DHT22;4306;50.210;10.628;2023-05-07T01:32:10;13.30;99.90
8537;DHT22;4306;50.210;10.628;2023-05-07T01:34:39;13.40;99.90
8537;DHT22;4306;50.210;10.628;2023-05-07T01:37:06;13.20;99.90
8537;DHT22;4306;50.210;10.628;2023-05-07T01:39:33;13.10;99.90
8537;DHT22;4306;50.210;10.628;2023-05-07T01:42:01;13.20;99.90
8537;DHT22;4306;50.210;10.628;2023-05-07T01:44:29;13.20;99.90
8537;DHT22;4306;50.210;10.628;2023-05-07T01:46:57;13.10;99.90
8537;DHT22;4306;50.210;10.628;2023-05-07T01:49:23;13.20;99.90
8537;DHT22;4306;50.210;10.628;2023-05-07T01:51:51;13.10;99.90
8537;DHT22;4306;50.210;10.628;2023-05-07T01:54:18;13.10;99.90
8537;DHT22;4306;50.210;10.628;2023-05-07T01:56:46;13.00;99.90
8537;DHT22;4306;50.210;10.628;2023-05-07T01:59:14;12.90;99.90
8537;DHT22;4306;50.210;10.628;2023-05-07T02:01:41;12.90;99.90
8537;DHT22;4306;50.210;10.628;2023-05-07T02:04:08;12.90;99.90
8537;DHT22;4306;50.210;10.628;2023-05-07T02:06:35;12.90;99.90
8537;DHT22;4306;50.210;10.628;2023-05-07T02:09:02;12.90;99.90
8537;DHT22;4306;50.210;10.628;2023-05-07T02:11:29;12.90;99.90
8537;DHT22;4306;50.210;10.628;2023-05-07T02:13:56;13.00;99.90
8537;DHT22;4306;50.210;10.628;2023-05-07T02:16:24;13.00;99.90
8537;DHT22;4306;50.210;10.628;2023-05-07T02:18:51;12.90;99.90
8537;DHT22;4306;50.210;10.628;2023-05-07T02:21:18;12.80;99.90
8537;DHT22;4306;50.210;10.628;2023-05-07T02:23:44;12.70;99.90
8537;DHT22;4306;50.210;10.628;2023-05-07T02:26:11;12.60;99.90
8537;DHT22;4306;50.210;10.628;2023-05-07T02:28:38;12.60;99.90
8537;DHT22;4306;50.210;10.628;2023-05-07T02:31:05;12.50;99.90
8537;DHT22;4306;50.210;10.628;2023-05-07T02:33:33;12.50;99.90
8537;DHT22;4306;50.210;10.628;2023-05-07T02:36:08;12.50;99.90
8537;DHT22;4306;50.210;10.628;2023-05-07T02:38:35;12.50;99.90
8537;DHT22;4306;50.210;10.628;2023-05-07T02:41:02;12.60;99.90
8537;DHT22;4306;50.210;10.628;2023-05-07T02:43:29;12.70;99.90
8537;DHT22;4306;50.210;10.628;2023-05-07T02:46:03;12.70;99.90
8537;DHT22;4306;50.210;10.628;2023-05-07T02:48:30;12.70;99.90
8537;DHT22;4306;50.210;10.628;2023-05-07T02:50:58;12.70;99.90
8537;DHT22;4306;50.210;10.628;2023-05-07T02:53:25;12.70;99.90
8537;DHT22;4306;50.210;10.628;2023-05-07T02:55:52;12.80;99.90
8537;DHT22;4306;50.210;10.628;2023-05-07T02:58:19;12.80;99.90
8537;DHT22;4306;50.210;10.628;2023-05-07T03:00:46;12.80;99.90
8537;DHT22;4306;50.210;10.628;2023-05-07T03:03:13;12.70;99.90
8537;DHT22;4306;50.210;10.628;2023-05-07T03:05:40;12.70;99.90
8537;DHT22;4306;50.210;10.628;2023-05-07T03:08:09;12.60;99.90
8537;DHT22;4306;50.210;10.628;2023-05-07T03:10:36;12.60;99.90
8537;DHT22;4306;50.210;10.628;2023-05-07T03:13:03;12.70;99.90
8537;DHT22;4306;50.210;10.628;2023-05-07T03:15:30;12.70;99.90
8537;DHT22;4306;50.210;10.628;2023-05-07T03:17:57;12.70;99.90
8537;DHT22;4306;50.210;10.628;2023-05-07T03:20:24;12.70;99.90
8537;DHT22;4306;50.210;10.628;2023-05-07T03:22:51;12.70;99.90
8537;DHT22;4306;50.210;10.628;2023-05-07T03:25:19;12.70;99.90
8537;DHT22;4306;50.210;10.628;2023-05-07T03:27:46;12.70;99.90
8537;DHT22;4306;50.210;10.628;2023-05-07T03:30:12;12.70;99.90
8537;DHT22;4306;50.210;10.628;2023-05-07T03:32:40;12.50;99.90
8537;DHT22;4306;50.210;10.628;2023-05-07T03:35:07;12.50;99.90
8537;DHT22;4306;50.210;10.628;2023-05-07T03:37:33;12.50;99.90
8537;DHT22;4306;50.210;10.628;2023-05-07T03:40:00;12.40;99.90
8537;DHT22;4306;50.210;10.628;2023-05-07T03:42:29;12.40;99.90
8537;DHT22;4306;50.210;10.628;2023-05-07T03:44:56;12.50;99.90
8537;DHT22;4306;50.210;10.628;2023-05-07T03:47:22;12.50;99.90
8537;DHT22;4306;50.210;10.628;2023-05-07T03:49:49;12.40;99.90
8537;DHT22;4306;50.210;10.628;2023-05-07T03:52:18;12.30;99.90
8537;DHT22;4306;50.210;10.628;2023-05-07T03:54:49;12.20;99.90
8537;DHT22;4306;50.210;10.628;2023-05-07T03:57:16;12.20;99.90
8537;DHT22;4306;50.210;10.628;2023-05-07T03:59:44;12.10;99.90
8537;DHT22;4306;50.210;10.628;2023-05-07T04:02:11;12.00;99.90
8537;DHT22;4306;50.210;10.628;2023-05-07T04:04:38;12.00;99.90
8537;DHT22;4306;50.210;10.628;2023-05-07T04:07:04;11.90;99.90
8537;DHT22;4306;50.210;10.628;2023-05-07T04:09:32;11.80;99.90
8537;DHT22;4306;50.210;10.628;2023-05-07T04:11:59;11.80;99.90
8537;DHT22;4306;50.210;10.628;2023-05-07T04:14:26;11.70;99.90
8537;DHT22;4306;50.210;10.628;2023-05-07T04:16:55;11.60;99.90
8537;DHT22;4306;50.210;10.628;2023-05-07T04:19:21;11.50;99.90
8537;DHT22;4306;50.210;10.628;2023-05-07T04:21:48;11.40;99.90
8537;DHT22;4306;50.210;10.628;2023-05-07T04:24:15;11.50;99.90
8537;DHT22;4306;50.210;10.628;2023-05-07T04:26:44;11.50;99.90
8537;DHT22;4306;50.210;10.628;2023-05-07T04:29:12;11.50;99.90
8537;DHT22;4306;50.210;10.628;2023-05-07T04:31:39;11.60;99.90
8537;DHT22;4306;50.210;10.628;2023-05-07T04:34:08;11.70;99.90
8537;DHT22;4306;50.210;10.628;2023-05-07T04:36:35;11.80;99.90
8537;DHT22;4306;50.210;10.628;2023-05-07T04:39:02;11.80;99.90
8537;DHT22;4306;50.210;10.628;2023-05-07T04:41:29;11.90;99.90
8537;DHT22;4306;50.210;10.628;2023-05-07T04:43:56;12.10;99.90
8537;DHT22;4306;50.210;10.628;2023-05-07T04:46:24;12.10;99.90
8537;DHT22;4306;50.210;10.628;2023-05-07T04:48:53;12.20;99.90
8537;DHT22;4306;50.210;10.628;2023-05-07T04:51:22;12.10;99.90
8537;DHT22;4306;50.210;10.628;2023-05-07T04:53:52;12.30;99.90
8537;DHT22;4306;50.210;10.628;2023-05-07T04:56:19;12.40;99.90
8537;DHT22;4306;50.210;10.628;2023-05-07T04:58:46;12.40;99.90
8537;DHT22;4306;50.210;10.628;2023-05-07T05:01:14;12.60;99.90
8537;DHT22;4306;50.210;10.628;2023-05-07T05:03:41;12.70;99.90
8537;DHT22;4306;50.210;10.628;2023-05-07T05:06:10;12.50;99.90
8537;DHT22;4306;50.210;10.628;2023-05-07T05:08:39;12.80;99.90
8537;DHT22;4306;50.210;10.628;2023-05-07T05:11:06;12.90;99.90
8537;DHT22;4306;50.210;10.628;2023-05-07T05:13:33;13.10;99.90
8537;DHT22;4306;50.210;10.628;2023-05-07T05:16:00;13.30;99.90
8537;DHT22;4306;50.210;10.628;2023-05-07T05:18:27;13.40;99.90
8537;DHT22;4306;50.210;10.628;2023-05-07T05:20:57;13.40;99.90
8537;DHT22;4306;50.210;10.628;2023-05-07T05:23:24;13.50;99.90
8537;DHT22;4306;50.210;10.628;2023-05-07T05:25:57;13.70;99.90
8537;DHT22;4306;50.210;10.628;2023-05-07T05:28:24;13.60;99.90
8537;DHT22;4306;50.210;10.628;2023-05-07T05:30:51;13.80;99.90
8537;DHT22;4306;50.210;10.628;2023-05-07T05:33:19;13.80;99.90
8537;DHT22;4306;50.210;10.628;2023-05-07T05:35:49;13.80;99.90
8537;DHT22;4306;50.210;10.628;2023-05-07T05:38:17;13.70;99.90
8537;DHT22;4306;50.210;10.628;2023-05-07T05:40:44;13.80;99.90
8537;DHT22;4306;50.210;10.628;2023-05-07T05:43:15;13.80;99.90
8537;DHT22;4306;50.210;10.628;2023-05-07T05:45:44;13.80;99.90
8537;DHT22;4306;50.210;10.628;2023-05-07T05:48:11;13.80;99.90
8537;DHT22;4306;50.210;10.628;2023-05-07T05:50:38;13.80;99.90
8537;DHT22;4306;50.210;10.628;2023-05-07T05:53:05;13.70;99.90
8537;DHT22;4306;50.210;10.628;2023-05-07T05:55:32;13.80;99.90
8537;DHT22;4306;50.210;10.628;2023-05-07T05:58:00;13.70;99.90
8537;DHT22;4306;50.210;10.628;2023-05-07T06:00:29;13.80;99.90
8537;DHT22;4306;50.210;10.628;2023-05-07T06:02:55;13.70;99.90
8537;DHT22;4306;50.210;10.628;2023-05-07T06:05:22;13.70;99.90
8537;DHT22;4306;50.210;10.628;2023-05-07T06:07:49;13.60;99.90
8537;DHT22;4306;50.210;10.628;2023-05-07T06:10:16;13.70;99.90
8537;DHT22;4306;50.210;10.628;2023-05-07T06:12:43;13.80;99.90
8537;DHT22;4306;50.210;10.628;2023-05-07T06:15:10;13.80;99.90
8537;DHT22;4306;50.210;10.628;2023-05-07T06:17:39;13.80;99.90
8537;DHT22;4306;50.210;10.628;2023-05-07T06:20:07;13.90;99.90
8537;DHT22;4306;50.210;10.628;2023-05-07T06:22:34;13.90;99.90
8537;DHT22;4306;50.210;10.628;2023-05-07T06:25:01;13.90;99.90
8537;DHT22;4306;50.210;10.628;2023-05-07T06:27:28;14.00;99.90
8537;DHT22;4306;50.210;10.628;2023-05-07T06:29:55;14.00;99.90
8537;DHT22;4306;50.210;10.628;2023-05-07T06:32:25;14.00;99.90
8537;DHT22;4306;50.210;10.628;2023-05-07T06:34:56;14.10;99.90
8537;DHT22;4306;50.210;10.628;2023-05-07T06:37:23;14.20;99.90
8537;DHT22;4306;50.210;10.628;2023-05-07T06:39:54;14.20;99.90
8537;DHT22;4306;50.210;10.628;2023-05-07T06:42:21;14.20;99.90
8537;DHT22;4306;50.210;10.628;2023-05-07T06:44:48;14.30;99.90
8537;DHT22;4306;50.210;10.628;2023-05-07T06:47:15;14.30;99.90
8537;DHT22;4306;50.210;10.628;2023-05-07T06:49:42;14.30;99.90
8537;DHT22;4306;50.210;10.628;2023-05-07T06:52:10;14.50;99.90
8537;DHT22;4306;50.210;10.628;2023-05-07T06:54:37;14.40;99.90
8537;DHT22;4306;50.210;10.628;2023-05-07T06:57:04;14.50;99.90
8537;DHT22;4306;50.210;10.628;2023-05-07T06:59:31;14.50;99.90
8537;DHT22;4306;50.210;10.628;2023-05-07T07:01:57;14.50;99.90
8537;DHT22;4306;50.210;10.628;2023-05-07T07:04:24;14.50;99.90
8537;DHT22;4306;50.210;10.628;2023-05-07T07:06:52;14.50;99.90
8537;DHT22;4306;50.210;10.628;2023-05-07T07:09:20;14.60;99.90
8537;DHT22;4306;50.210;10.628;2023-05-07T07:11:47;14.80;99.90
8537;DHT22;4306;50.210;10.628;2023-05-07T07:14:14;14.80;99.90
8537;DHT22;4306;50.210;10.628;2023-05-07T07:16:41;14.90;99.90
8537;DHT22;4306;50.210;10.628;2023-05-07T07:19:08;15.00;99.90
8537;DHT22;4306;50.210;10.628;2023-05-07T07:21:35;15.20;99.90
8537;DHT22;4306;50.210;10.628;2023-05-07T07:24:02;15.30;99.90
8537;DHT22;4306;50.210;10.628;2023-05-07T07:26:30;15.40;99.90
8537;DHT22;4306;50.210;10.628;2023-05-07T07:28:57;15.40;99.90
8537;DHT22;4306;50.210;10.628;2023-05-07T07:31:24;15.50;99.90
8537;DHT22;4306;50.210;10.628;2023-05-07T07:33:50;15.70;99.90
8537;DHT22;4306;50.210;10.628;2023-05-07T07:36:17;15.90;99.90
8537;DHT22;4306;50.210;10.628;2023-05-07T07:38:44;15.90;99.90
8537;DHT22;4306;50.210;10.628;2023-05-07T07:41:11;16.00;99.90
8537;DHT22;4306;50.210;10.628;2023-05-07T07:43:39;16.20;99.90
8537;DHT22;4306;50.210;10.628;2023-05-07T07:46:06;16.30;99.90
8537;DHT22;4306;50.210;10.628;2023-05-07T07:48:33;16.50;99.90
8537;DHT22;4306;50.210;10.628;2023-05-07T07:51:00;16.60;99.90
8537;DHT22;4306;50.210;10.628;2023-05-07T07:53:27;16.70;99.90
8537;DHT22;4306;50.210;10.628;2023-05-07T07:55:53;16.70;99.90
8537;DHT22;4306;50.210;10.628;2023-05-07T07:58:21;16.70;99.90
8537;DHT22;4306;50.210;10.628;2023-05-07T08:00:50;16.70;99.90
8537;DHT22;4306;50.210;10.628;2023-05-07T08:03:17;16.90;99.90
8537;DHT22;4306;50.210;10.628;2023-05-07T08:05:45;16.80;99.90
8537;DHT22;4306;50.210;10.628;2023-05-07T08:08:12;16.90;99.90
8537;DHT22;4306;50.210;10.628;2023-05-07T08:10:38;17.00;99.90
8537;DHT22;4306;50.210;10.628;2023-05-07T08:13:05;17.20;99.90
8537;DHT22;4306;50.210;10.628;2023-05-07T08:15:32;17.00;99.90
8537;DHT22;4306;50.210;10.628;2023-05-07T08:18:01;17.20;99.90
8537;DHT22;4306;50.210;10.628;2023-05-07T08:20:28;17.30;99.90
8537;DHT22;4306;50.210;10.628;2023-05-07T08:22:55;17.40;99.90
8537;DHT22;4306;50.210;10.628;2023-05-07T08:25:22;17.50;99.90
8537;DHT22;4306;50.210;10.628;2023-05-07T08:27:49;17.30;99.90
8537;DHT22;4306;50.210;10.628;2023-05-07T08:30:16;17.30;99.90
8537;DHT22;4306;50.210;10.628;2023-05-07T08:32:43;17.50;99.90
8537;DHT22;4306;50.210;10.628;2023-05-07T08:35:11;17.60;99.90
8537;DHT22;4306;50.210;10.628;2023-05-07T08:37:38;17.80;99.90
8537;DHT22;4306;50.210;10.628;2023-05-07T08:40:06;17.60;99.90
8537;DHT22;4306;50.210;10.628;2023-05-07T08:42:35;17.60;99.90
8537;DHT22;4306;50.210;10.628;2023-05-07T08:45:04;17.80;99.90
8537;DHT22;4306;50.210;10.628;2023-05-07T08:47:40;18.00;99.90
8537;DHT22;4306;50.210;10.628;2023-05-07T08:50:11;18.10;99.90
8537;DHT22;4306;50.210;10.628;2023-05-07T08:52:39;18.20;99.90
8537;DHT22;4306;50.210;10.628;2023-05-07T08:55:07;18.30;99.90
8537;DHT22;4306;50.210;10.628;2023-05-07T08:57:34;18.30;99.90
8537;DHT22;4306;50.210;10.628;2023-05-07T09:00:01;18.30;99.70
8537;DHT22;4306;50.210;10.628;2023-05-07T09:02:29;18.40;99.60
8537;DHT22;4306;50.210;10.628;2023-05-07T09:04:56;18.40;99.70
8537;DHT22;4306;50.210;10.628;2023-05-07T09:07:25;18.60;99.70
8537;DHT22;4306;50.210;10.628;2023-05-07T09:09:52;18.80;99.40
8537;DHT22;4306;50.210;10.628;2023-05-07T09:12:21;19.00;99.40
8537;DHT22;4306;50.210;10.628;2023-05-07T09:14:48;19.10;98.70
8537;DHT22;4306;50.210;10.628;2023-05-07T09:17:16;18.90;98.90
8537;DHT22;4306;50.210;10.628;2023-05-07T09:19:44;18.90;97.90
8537;DHT22;4306;50.210;10.628;2023-05-07T09:22:11;18.80;98.50
8537;DHT22;4306;50.210;10.628;2023-05-07T09:24:39;18.90;98.60
8537;DHT22;4306;50.210;10.628;2023-05-07T09:27:07;19.20;98.30
8537;DHT22;4306;50.210;10.628;2023-05-07T09:29:36;19.30;98.40
8537;DHT22;4306;50.210;10.628;2023-05-07T09:32:04;19.50;98.20
8537;DHT22;4306;50.210;10.628;2023-05-07T09:34:31;19.40;97.00
8537;DHT22;4306;50.210;10.628;2023-05-07T09:36:59;19.20;97.00
8537;DHT22;4306;50.210;10.628;2023-05-07T09:39:27;19.20;96.70
8537;DHT22;4306;50.210;10.628;2023-05-07T09:42:06;19.20;97.30
8537;DHT22;4306;50.210;10.628;2023-05-07T09:44:34;19.20;97.70
8537;DHT22;4306;50.210;10.628;2023-05-07T09:47:02;19.40;97.00
8537;DHT22;4306;50.210;10.628;2023-05-07T09:49:34;19.00;97.90
8537;DHT22;4306;50.210;10.628;2023-05-07T09:52:02;19.30;97.20
8537;DHT22;4306;50.210;10.628;2023-05-07T09:54:32;19.60;97.90
8537;DHT22;4306;50.210;10.628;2023-05-07T09:57:01;19.60;96.80
8537;DHT22;4306;50.210;10.628;2023-05-07T09:59:31;19.70;96.00
8537;DHT22;4306;50.210;10.628;2023-05-07T10:02:01;20.00;96.20
8537;DHT22;4306;50.210;10.628;2023-05-07T10:04:31;20.20;95.90
8537;DHT22;4306;50.210;10.628;2023-05-07T10:06:59;20.00;95.40
8537;DHT22;4306;50.210;10.628;2023-05-07T10:09:26;20.10;95.40
8537;DHT22;4306;50.210;10.628;2023-05-07T10:11:54;20.30;96.30
8537;DHT22;4306;50.210;10.628;2023-05-07T10:14:21;20.30;95.30
8537;DHT22;4306;50.210;10.628;2023-05-07T10:16:50;20.30;94.30
8537;DHT22;4306;50.210;10.628;2023-05-07T10:19:18;20.20;94.80
8537;DHT22;4306;50.210;10.628;2023-05-07T10:21:53;20.40;94.40
8537;DHT22;4306;50.210;10.628;2023-05-07T10:24:25;20.50;94.20
8537;DHT22;4306;50.210;10.628;2023-05-07T10:26:53;20.50;93.80
8537;DHT22;4306;50.210;10.628;2023-05-07T10:29:28;20.60;93.60
8537;DHT22;4306;50.210;10.628;2023-05-07T10:32:02;20.60;94.00
8537;DHT22;4306;50.210;10.628;2023-05-07T10:34:36;20.60;94.00
8537;DHT22;4306;50.210;10.628;2023-05-07T10:37:04;20.80;93.90
8537;DHT22;4306;50.210;10.628;2023-05-07T10:39:31;21.00;93.80
8537;DHT22;4306;50.210;10.628;2023-05-07T10:42:07;20.90;92.80
8537;DHT22;4306;50.210;10.628;2023-05-07T10:44:34;20.90;93.30
8537;DHT22;4306;50.210;10.628;2023-05-07T10:47:08;20.90;92.80
8537;DHT22;4306;50.210;10.628;2023-05-07T10:49:39;20.70;92.50
8537;DHT22;4306;50.210;10.628;2023-05-07T10:52:26;20.60;92.00
8537;DHT22;4306;50.210;10.628;2023-05-07T10:55:19;20.90;92.90
8537;DHT22;4306;50.210;10.628;2023-05-07T10:57:47;21.00;92.50
8537;DHT22;4306;50.210;10.628;2023-05-07T11:00:42;21.00;91.80
8537;DHT22;4306;50.210;10.628;2023-05-07T11:03:11;20.80;91.90
8537;DHT22;4306;50.210;10.628;2023-05-07T11:05:38;20.40;92.30
8537;DHT22;4306;50.210;10.628;2023-05-07T11:08:05;20.60;92.70
8537;DHT22;4306;50.210;10.628;2023-05-07T11:10:49;20.50;91.70
8537;DHT22;4306;50.210;10.628;2023-05-07T11:13:17;20.80;92.10
8537;DHT22;4306;50.210;10.628;2023-05-07T11:15:46;21.00;92.20
8537;DHT22;4306;50.210;10.628;2023-05-07T11:18:16;21.00;91.70
8537;DHT22;4306;50.210;10.628;2023-05-07T11:20:55;21.20;91.30
8537;DHT22;4306;50.210;10.628;2023-05-07T11:26:44;21.10;90.50
8537;DHT22;4306;50.210;10.628;2023-05-07T11:29:12;21.30;89.00
8537;DHT22;4306;50.210;10.628;2023-05-07T11:31:39;21.40;90.60
8537;DHT22;4306;50.210;10.628;2023-05-07T11:34:08;21.20;90.00
8537;DHT22;4306;50.210;10.628;2023-05-07T11:36:37;21.40;90.40
8537;DHT22;4306;50.210;10.628;2023-05-07T11:39:28;21.50;90.50
8537;DHT22;4306;50.210;10.628;2023-05-07T11:41:57;21.60;90.90
8537;DHT22;4306;50.210;10.628;2023-05-07T11:44:24;21.70;89.60
8537;DHT22;4306;50.210;10.628;2023-05-07T11:46:51;21.40;88.20
8537;DHT22;4306;50.210;10.628;2023-05-07T11:49:19;21.30;90.00
8537;DHT22;4306;50.210;10.628;2023-05-07T11:51:46;21.40;88.60
8537;DHT22;4306;50.210;10.628;2023-05-07T11:54:16;21.40;89.10
8537;DHT22;4306;50.210;10.628;2023-05-07T11:56:44;21.40;89.20
8537;DHT22;4306;50.210;10.628;2023-05-07T11:59:12;21.80;90.40
8537;DHT22;4306;50.210;10.628;2023-05-07T12:01:45;21.90;89.30
8537;DHT22;4306;50.210;10.628;2023-05-07T12:04:12;22.00;87.90
8537;DHT22;4306;50.210;10.628;2023-05-07T12:06:40;21.80;88.70
8537;DHT22;4306;50.210;10.628;2023-05-07T12:09:07;21.90;87.50
8537;DHT22;4306;50.210;10.628;2023-05-07T12:11:37;22.20;89.40
8537;DHT22;4306;50.210;10.628;2023-05-07T12:14:05;22.10;87.60
8537;DHT22;4306;50.210;10.628;2023-05-07T12:16:32;22.20;87.30
8537;DHT22;4306;50.210;10.628;2023-05-07T12:18:59;22.30;86.10
8537;DHT22;4306;50.210;10.628;2023-05-07T12:21:26;22.00;85.00
8537;DHT22;4306;50.210;10.628;2023-05-07T12:23:56;22.30;87.20
8537;DHT22;4306;50.210;10.628;2023-05-07T12:26:23;22.10;86.10
8537;DHT22;4306;50.210;10.628;2023-05-07T12:28:50;21.90;85.70
8537;DHT22;4306;50.210;10.628;2023-05-07T12:31:17;22.10;86.70
8537;DHT22;4306;50.210;10.628;2023-05-07T12:33:45;22.30;86.90
8537;DHT22;4306;50.210;10.628;2023-05-07T12:36:13;21.80;84.40
8537;DHT22;4306;50.210;10.628;2023-05-07T12:38:40;22.00;85.70
8537;DHT22;4306;50.210;10.628;2023-05-07T12:41:10;22.10;85.50
8537;DHT22;4306;50.210;10.628;2023-05-07T12:43:37;22.10;87.10
8537;DHT22;4306;50.210;10.628;2023-05-07T12:46:05;22.20;84.90
8537;DHT22;4306;50.210;10.628;2023-05-07T12:48:33;22.30;85.50
8537;DHT22;4306;50.210;10.628;2023-05-07T12:51:01;22.10;85.30
8537;DHT22;4306;50.210;10.628;2023-05-07T12:53:29;22.20;85.90
8537;DHT22;4306;50.210;10.628;2023-05-07T12:55:57;22.50;86.80
8537;DHT22;4306;50.210;10.628;2023-05-07T12:58:28;22.70;85.60
8537;DHT22;4306;50.210;10.628;2023-05-07T13:00:56;22.80;85.30
8537;DHT22;4306;50.210;10.628;2023-05-07T13:03:28;22.50;83.50
8537;DHT22;4306;50.210;10.628;2023-05-07T13:06:01;21.60;82.70
8537;DHT22;4306;50.210;10.628;2023-05-07T13:08:30;21.50;82.80
8537;DHT22;4306;50.210;10.628;2023-05-07T13:10:58;21.70;85.80
8537;DHT22;4306;50.210;10.628;2023-05-07T13:13:30;21.80;85.70
8537;DHT22;4306;50.210;10.628;2023-05-07T13:15:57;21.80;82.30
8537;DHT22;4306;50.210;10.628;2023-05-07T13:18:25;22.10;84.50
8537;DHT22;4306;50.210;10.628;2023-05-07T13:20:52;22.60;85.20
8537;DHT22;4306;50.210;10.628;2023-05-07T13:23:20;22.60;81.60
8537;DHT22;4306;50.210;10.628;2023-05-07T13:25:47;23.00;82.70
8537;DHT22;4306;50.210;10.628;2023-05-07T13:28:14;23.10;81.80
8537;DHT22;4306;50.210;10.628;2023-05-07T13:30:43;23.10;78.10
8537;DHT22;4306;50.210;10.628;2023-05-07T13:33:10;23.10;80.20
8537;DHT22;4306;50.210;10.628;2023-05-07T13:35:37;23.40;78.80
8537;DHT22;4306;50.210;10.628;2023-05-07T13:38:04;23.40;78.20
8537;DHT22;4306;50.210;10.628;2023-05-07T13:40:31;23.10;76.30
8537;DHT22;4306;50.210;10.628;2023-05-07T13:42:58;23.00;78.50
8537;DHT22;4306;50.210;10.628;2023-05-07T13:45:27;23.40;79.80
8537;DHT22;4306;50.210;10.628;2023-05-07T13:47:56;23.60;78.60
8537;DHT22;4306;50.210;10.628;2023-05-07T13:50:23;23.70;77.40
8537;DHT22;4306;50.210;10.628;2023-05-07T13:52:52;23.70;77.60
8537;DHT22;4306;50.210;10.628;2023-05-07T13:55:20;23.80;75.20
8537;DHT22;4306;50.210;10.628;2023-05-07T13:57:54;23.40;77.00
8537;DHT22;4306;50.210;10.628;2023-05-07T14:00:21;22.60;76.40
8537;DHT22;4306;50.210;10.628;2023-05-07T14:02:48;22.90;78.80
8537;DHT22;4306;50.210;10.628;2023-05-07T14:05:16;23.10;77.60
8537;DHT22;4306;50.210;10.628;2023-05-07T14:07:43;23.10;79.00
8537;DHT22;4306;50.210;10.628;2023-05-07T14:10:10;23.00;75.90
8537;DHT22;4306;50.210;10.628;2023-05-07T14:12:41;23.10;76.30
8537;DHT22;4306;50.210;10.628;2023-05-07T14:15:09;22.70;75.40
8537;DHT22;4306;50.210;10.628;2023-05-07T14:17:36;22.90;78.90
8537;DHT22;4306;50.210;10.628;2023-05-07T14:20:04;23.20;79.00
8537;DHT22;4306;50.210;10.628;2023-05-07T14:22:33;23.20;76.90
8537;DHT22;4306;50.210;10.628;2023-05-07T14:25:00;23.10;78.30
8537;DHT22;4306;50.210;10.628;2023-05-07T14:27:27;23.30;77.90
8537;DHT22;4306;50.210;10.628;2023-05-07T14:29:54;23.50;79.00
8537;DHT22;4306;50.210;10.628;2023-05-07T14:32:21;23.60;76.80
8537;DHT22;4306;50.210;10.628;2023-05-07T14:34:48;23.60;75.80
8537;DHT22;4306;50.210;10.628;2023-05-07T14:37:15;23.60;75.00
8537;DHT22;4306;50.210;10.628;2023-05-07T14:39:46;22.90;75.30
8537;DHT22;4306;50.210;10.628;2023-05-07T14:42:13;22.50;75.00
8537;DHT22;4306;50.210;10.628;2023-05-07T14:44:40;22.50;75.10
8537;DHT22;4306;50.210;10.628;2023-05-07T14:47:07;22.70;77.10
8537;DHT22;4306;50.210;10.628;2023-05-07T14:49:34;22.80;77.80
8537;DHT22;4306;50.210;10.628;2023-05-07T14:52:01;22.90;76.10
8537;DHT22;4306;50.210;10.628;2023-05-07T14:54:28;22.80;76.70
8537;DHT22;4306;50.210;10.628;2023-05-07T14:56:56;22.50;78.30
8537;DHT22;4306;50.210;10.628;2023-05-07T14:59:23;22.00;78.20
8537;DHT22;4306;50.210;10.628;2023-05-07T15:01:50;22.20;79.60
8537;DHT22;4306;50.210;10.628;2023-05-07T15:04:17;22.00;80.50
8537;DHT22;4306;50.210;10.628;2023-05-07T15:06:44;21.80;80.70
8537;DHT22;4306;50.210;10.628;2023-05-07T15:09:11;22.10;79.40
8537;DHT22;4306;50.210;10.628;2023-05-07T15:11:38;22.10;78.70
8537;DHT22;4306;50.210;10.628;2023-05-07T15:14:07;21.90;78.20
8537;DHT22;4306;50.210;10.628;2023-05-07T15:16:33;22.00;79.70
8537;DHT22;4306;50.210;10.628;2023-05-07T15:19:00;22.30;80.80
8537;DHT22;4306;50.210;10.628;2023-05-07T15:21:28;22.20;79.70
8537;DHT22;4306;50.210;10.628;2023-05-07T15:23:56;22.20;80.50
8537;DHT22;4306;50.210;10.628;2023-05-07T15:26:23;22.40;79.90
8537;DHT22;4306;50.210;10.628;2023-05-07T15:28:50;22.00;79.50
8537;DHT22;4306;50.210;10.628;2023-05-07T15:31:21;22.40;80.20
8537;DHT22;4306;50.210;10.628;2023-05-07T15:33:49;22.50;80.30
8537;DHT22;4306;50.210;10.628;2023-05-07T15:36:17;22.50;79.10
8537;DHT22;4306;50.210;10.628;2023-05-07T15:38:44;22.40;79.80
8537;DHT22;4306;50.210;10.628;2023-05-07T15:41:11;22.30;80.90
8537;DHT22;4306;50.210;10.628;2023-05-07T15:43:44;21.70;81.50
8537;DHT22;4306;50.210;10.628;2023-05-07T15:46:11;21.30;83.10
8537;DHT22;4306;50.210;10.628;2023-05-07T15:48:39;21.40;83.10
8537;DHT22;4306;50.210;10.628;2023-05-07T15:51:06;21.60;82.90
8537;DHT22;4306;50.210;10.628;2023-05-07T15:53:34;21.50;82.10